Terminal Aerodrome Forecast
Issued by NWS

Home | Current Version | Previous Version | Text Only | Print | Product List | Glossary On
Versions: 1 2 3 4 5 6 7 8 9 10 11 12 13
153
FTUS42 KMLB 191138
TAFSUA
TAF
KSUA 191138Z 1912/2012 33005KT P6SM VCSH SCT015 SCT035 BKN100
      TEMPO 1913/1915 05012G18KT 3SM SHRA BKN015 OVC030
     FM191500 05010KT P6SM SCT025 SCT100
     FM191800 05011KT P6SM VCSH SCT030 BKN080
      TEMPO 1918/1922 3SM SHRA BKN020 OVC040
     FM200300 07007KT P6SM SCT030 SCT120=

USA.gov is the U.S. government's official web portal to all federal, state and local government web resources and services.